sensor_id;sensor_type;location;lat;lon;timestamp;pressure;altitude;pressure_sealevel;temperature;humidity
84352;BME280;75904;43.524;1.518;2024-03-17T00:02:22;100533.91;;;13.93;64.87
84352;BME280;75904;43.524;1.518;2024-03-17T00:04:48;100553.50;;;13.95;65.32
84352;BME280;75904;43.524;1.518;2024-03-17T00:07:13;100552.97;;;13.91;66.36
84352;BME280;75904;43.524;1.518;2024-03-17T00:09:39;100544.41;;;13.96;65.26
84352;BME280;75904;43.524;1.518;2024-03-17T00:12:05;100549.81;;;14.04;66.30
84352;BME280;75904;43.524;1.518;2024-03-17T00:14:31;100544.41;;;14.12;65.07
84352;BME280;75904;43.524;1.518;2024-03-17T00:16:56;100546.41;;;14.10;65.17
84352;BME280;75904;43.524;1.518;2024-03-17T00:19:23;100545.41;;;14.11;65.45
84352;BME280;75904;43.524;1.518;2024-03-17T00:21:48;100536.59;;;14.17;65.99
84352;BME280;75904;43.524;1.518;2024-03-17T00:24:16;100531.53;;;14.14;66.07
84352;BME280;75904;43.524;1.518;2024-03-17T00:26:41;100524.94;;;14.17;65.25
84352;BME280;75904;43.524;1.518;2024-03-17T00:29:07;100522.75;;;14.20;64.61
84352;BME280;75904;43.524;1.518;2024-03-17T00:31:32;100513.97;;;14.02;64.64
84352;BME280;75904;43.524;1.518;2024-03-17T00:33:57;100510.44;;;13.85;65.27
84352;BME280;75904;43.524;1.518;2024-03-17T00:36:23;100500.97;;;13.73;65.12
84352;BME280;75904;43.524;1.518;2024-03-17T00:38:48;100502.81;;;13.56;66.05
84352;BME280;75904;43.524;1.518;2024-03-17T00:41:14;100504.66;;;13.56;66.04
84352;BME280;75904;43.524;1.518;2024-03-17T00:43:39;100502.13;;;13.54;66.02
84352;BME280;75904;43.524;1.518;2024-03-17T00:46:04;100505.50;;;13.48;65.79
84352;BME280;75904;43.524;1.518;2024-03-17T00:48:30;100506.50;;;13.47;65.26
84352;BME280;75904;43.524;1.518;2024-03-17T00:50:57;100493.69;;;13.41;65.32
84352;BME280;75904;43.524;1.518;2024-03-17T00:53:23;100497.06;;;13.43;66.41
84352;BME280;75904;43.524;1.518;2024-03-17T00:55:53;100490.13;;;13.49;66.29
84352;BME280;75904;43.524;1.518;2024-03-17T00:58:20;100500.94;;;13.41;66.79
84352;BME280;75904;43.524;1.518;2024-03-17T01:00:45;100498.38;;;13.39;66.10
84352;BME280;75904;43.524;1.518;2024-03-17T01:03:13;100492.66;;;13.42;65.84
84352;BME280;75904;43.524;1.518;2024-03-17T01:05:38;100493.69;;;13.41;65.83
84352;BME280;75904;43.524;1.518;2024-03-17T01:08:07;100498.06;;;13.42;65.90
84352;BME280;75904;43.524;1.518;2024-03-17T01:10:33;100500.75;;;13.34;65.84
84352;BME280;75904;43.524;1.518;2024-03-17T01:12:59;100491.09;;;13.24;66.84
84352;BME280;75904;43.524;1.518;2024-03-17T01:15:24;100486.53;;;13.24;67.08
84352;BME280;75904;43.524;1.518;2024-03-17T01:17:49;100489.56;;;13.13;66.26
84352;BME280;75904;43.524;1.518;2024-03-17T01:20:15;100480.97;;;13.17;66.19
84352;BME280;75904;43.524;1.518;2024-03-17T01:22:41;100470.59;;;12.97;66.97
84352;BME280;75904;43.524;1.518;2024-03-17T01:25:07;100451.72;;;13.05;66.95
84352;BME280;75904;43.524;1.518;2024-03-17T01:27:34;100456.41;;;12.95;66.57
84352;BME280;75904;43.524;1.518;2024-03-17T01:29:59;100462.19;;;13.00;67.07
84352;BME280;75904;43.524;1.518;2024-03-17T01:32:24;100473.97;;;12.99;66.08
84352;BME280;75904;43.524;1.518;2024-03-17T01:34:50;100473.28;;;12.97;66.20
84352;BME280;75904;43.524;1.518;2024-03-17T01:37:16;100471.56;;;12.88;66.56
84352;BME280;75904;43.524;1.518;2024-03-17T01:39:41;100458.63;;;12.99;66.90
84352;BME280;75904;43.524;1.518;2024-03-17T01:42:06;100459.44;;;12.92;66.72
84352;BME280;75904;43.524;1.518;2024-03-17T01:44:32;100450.69;;;12.98;66.17
84352;BME280;75904;43.524;1.518;2024-03-17T01:46:58;100456.75;;;12.92;66.92
84352;BME280;75904;43.524;1.518;2024-03-17T01:49:24;100463.00;;;12.92;67.17
84352;BME280;75904;43.524;1.518;2024-03-17T01:51:51;100462.81;;;12.94;66.95
84352;BME280;75904;43.524;1.518;2024-03-17T01:54:18;100468.19;;;12.94;66.65
84352;BME280;75904;43.524;1.518;2024-03-17T01:56:43;100466.50;;;12.85;66.41
84352;BME280;75904;43.524;1.518;2024-03-17T01:59:09;100461.75;;;12.78;66.76
84352;BME280;75904;43.524;1.518;2024-03-17T02:01:35;100458.34;;;12.68;67.37
84352;BME280;75904;43.524;1.518;2024-03-17T02:04:01;100452.56;;;12.63;67.53
84352;BME280;75904;43.524;1.518;2024-03-17T02:06:27;100455.13;;;12.65;67.89
84352;BME280;75904;43.524;1.518;2024-03-17T02:08:53;100450.56;;;12.65;67.54
84352;BME280;75904;43.524;1.518;2024-03-17T02:11:32;100442.84;;;12.70;67.88
84352;BME280;75904;43.524;1.518;2024-03-17T02:14:00;100453.41;;;12.64;68.18
84352;BME280;75904;43.524;1.518;2024-03-17T02:16:26;100446.53;;;12.61;67.70
84352;BME280;75904;43.524;1.518;2024-03-17T02:18:55;100444.47;;;12.55;68.48
84352;BME280;75904;43.524;1.518;2024-03-17T02:21:21;100437.59;;;12.61;68.38
84352;BME280;75904;43.524;1.518;2024-03-17T02:23:50;100429.53;;;12.69;67.52
84352;BME280;75904;43.524;1.518;2024-03-17T02:26:16;100430.72;;;12.74;67.15
84352;BME280;75904;43.524;1.518;2024-03-17T02:28:42;100419.25;;;12.80;67.57
84352;BME280;75904;43.524;1.518;2024-03-17T02:31:10;100416.28;;;12.92;66.75
84352;BME280;75904;43.524;1.518;2024-03-17T02:33:36;100404.31;;;13.02;67.24
84352;BME280;75904;43.524;1.518;2024-03-17T02:36:02;100406.84;;;13.04;66.46
84352;BME280;75904;43.524;1.518;2024-03-17T02:38:29;100399.44;;;13.06;66.63
84352;BME280;75904;43.524;1.518;2024-03-17T02:41:13;100382.88;;;13.09;66.35
84352;BME280;75904;43.524;1.518;2024-03-17T02:43:39;100381.44;;;13.14;66.72
84352;BME280;75904;43.524;1.518;2024-03-17T02:46:04;100380.22;;;13.17;65.60
84352;BME280;75904;43.524;1.518;2024-03-17T02:48:30;100383.28;;;13.14;66.57
84352;BME280;75904;43.524;1.518;2024-03-17T02:50:56;100387.47;;;13.16;66.45
84352;BME280;75904;43.524;1.518;2024-03-17T02:53:21;100388.97;;;13.11;66.21
84352;BME280;75904;43.524;1.518;2024-03-17T02:55:47;100393.69;;;13.09;66.60
84352;BME280;75904;43.524;1.518;2024-03-17T02:58:12;100392.84;;;13.08;65.48
84352;BME280;75904;43.524;1.518;2024-03-17T03:00:37;100391.34;;;13.06;66.41
84352;BME280;75904;43.524;1.518;2024-03-17T03:03:05;100389.47;;;13.06;65.81
84352;BME280;75904;43.524;1.518;2024-03-17T03:05:30;100401.44;;;13.04;65.75
84352;BME280;75904;43.524;1.518;2024-03-17T03:07:55;100403.97;;;13.05;66.17
84352;BME280;75904;43.524;1.518;2024-03-17T03:10:21;100393.38;;;13.12;65.51
84352;BME280;75904;43.524;1.518;2024-03-17T03:12:46;100389.34;;;13.16;66.48
84352;BME280;75904;43.524;1.518;2024-03-17T03:15:12;100390.72;;;13.20;65.48
84352;BME280;75904;43.524;1.518;2024-03-17T03:17:38;100391.03;;;13.25;65.48
84352;BME280;75904;43.524;1.518;2024-03-17T03:20:04;100391.19;;;13.24;66.61
84352;BME280;75904;43.524;1.518;2024-03-17T03:22:31;100387.00;;;13.21;66.41
84352;BME280;75904;43.524;1.518;2024-03-17T03:24:56;100386.31;;;13.27;66.44
84352;BME280;75904;43.524;1.518;2024-03-17T03:27:22;100394.91;;;13.31;65.78
84352;BME280;75904;43.524;1.518;2024-03-17T03:29:47;100398.66;;;13.30;66.47
84352;BME280;75904;43.524;1.518;2024-03-17T03:32:13;100386.66;;;13.32;66.50
84352;BME280;75904;43.524;1.518;2024-03-17T03:34:38;100383.63;;;13.35;66.05
84352;BME280;75904;43.524;1.518;2024-03-17T03:37:04;100391.88;;;13.34;65.61
84352;BME280;75904;43.524;1.518;2024-03-17T03:39:32;100395.44;;;13.34;65.75
84352;BME280;75904;43.524;1.518;2024-03-17T03:41:57;100388.34;;;13.41;66.49
84352;BME280;75904;43.524;1.518;2024-03-17T03:44:23;100388.03;;;13.44;66.47
84352;BME280;75904;43.524;1.518;2024-03-17T03:46:48;100383.78;;;13.42;66.59
84352;BME280;75904;43.524;1.518;2024-03-17T03:49:13;100385.31;;;13.36;66.78
84352;BME280;75904;43.524;1.518;2024-03-17T03:51:39;100379.56;;;13.39;66.61
84352;BME280;75904;43.524;1.518;2024-03-17T03:54:05;100391.91;;;13.42;65.68
84352;BME280;75904;43.524;1.518;2024-03-17T03:56:32;100389.72;;;13.45;66.09
84352;BME280;75904;43.524;1.518;2024-03-17T03:58:57;100389.88;;;13.52;66.56
84352;BME280;75904;43.524;1.518;2024-03-17T04:01:22;100393.22;;;13.54;66.90
84352;BME280;75904;43.524;1.518;2024-03-17T04:03:48;100384.63;;;13.50;65.74
84352;BME280;75904;43.524;1.518;2024-03-17T04:06:17;100370.78;;;13.53;66.48
84352;BME280;75904;43.524;1.518;2024-03-17T04:08:43;100381.25;;;13.56;66.00
84352;BME280;75904;43.524;1.518;2024-03-17T04:11:09;100376.69;;;13.57;66.20
84352;BME280;75904;43.524;1.518;2024-03-17T04:13:35;100379.41;;;13.57;66.60
84352;BME280;75904;43.524;1.518;2024-03-17T04:16:05;100380.94;;;13.60;65.95
84352;BME280;75904;43.524;1.518;2024-03-17T04:18:32;100384.78;;;13.65;67.21
84352;BME280;75904;43.524;1.518;2024-03-17T04:21:02;100383.63;;;13.68;65.70
84352;BME280;75904;43.524;1.518;2024-03-17T04:23:32;100375.84;;;13.65;66.34
84352;BME280;75904;43.524;1.518;2024-03-17T04:25:58;100382.25;;;13.64;67.20
84352;BME280;75904;43.524;1.518;2024-03-17T04:28:24;100378.88;;;13.62;67.12
84352;BME280;75904;43.524;1.518;2024-03-17T04:30:50;100377.88;;;13.54;66.51
84352;BME280;75904;43.524;1.518;2024-03-17T04:33:15;100377.53;;;13.57;67.50
84352;BME280;75904;43.524;1.518;2024-03-17T04:35:42;100376.69;;;13.57;66.54
84352;BME280;75904;43.524;1.518;2024-03-17T04:38:08;100377.53;;;13.57;67.05
84352;BME280;75904;43.524;1.518;2024-03-17T04:40:34;100379.72;;;13.62;66.43
84352;BME280;75904;43.524;1.518;2024-03-17T04:43:00;100377.22;;;13.61;66.93
84352;BME280;75904;43.524;1.518;2024-03-17T04:45:26;100372.13;;;13.74;65.15
84352;BME280;75904;43.524;1.518;2024-03-17T04:47:51;100369.59;;;13.64;65.83
84352;BME280;75904;43.524;1.518;2024-03-17T04:50:17;100378.22;;;13.60;65.48
84352;BME280;75904;43.524;1.518;2024-03-17T04:52:42;100382.78;;;13.51;66.95
84352;BME280;75904;43.524;1.518;2024-03-17T04:55:08;100389.03;;;13.43;66.34
84352;BME280;75904;43.524;1.518;2024-03-17T04:57:33;100393.41;;;13.36;65.98
84352;BME280;75904;43.524;1.518;2024-03-17T04:59:58;100394.44;;;13.35;66.03
84352;BME280;75904;43.524;1.518;2024-03-17T05:02:24;100406.75;;;13.30;66.33
84352;BME280;75904;43.524;1.518;2024-03-17T05:04:50;100413.81;;;13.31;66.57
84352;BME280;75904;43.524;1.518;2024-03-17T05:07:16;100418.03;;;13.25;66.19
84352;BME280;75904;43.524;1.518;2024-03-17T05:09:41;100420.25;;;13.22;67.14
84352;BME280;75904;43.524;1.518;2024-03-17T05:12:09;100428.31;;;13.13;67.46
84352;BME280;75904;43.524;1.518;2024-03-17T05:14:34;100435.25;;;13.24;65.95
84352;BME280;75904;43.524;1.518;2024-03-17T05:17:00;100435.41;;;13.14;67.06
84352;BME280;75904;43.524;1.518;2024-03-17T05:19:25;100440.47;;;13.17;66.58
84352;BME280;75904;43.524;1.518;2024-03-17T05:21:50;100443.69;;;13.21;66.10
84352;BME280;75904;43.524;1.518;2024-03-17T05:24:16;100447.06;;;13.15;66.08
84352;BME280;75904;43.524;1.518;2024-03-17T05:26:42;100449.75;;;13.23;66.66
84352;BME280;75904;43.524;1.518;2024-03-17T05:29:07;100447.06;;;13.15;66.46
84352;BME280;75904;43.524;1.518;2024-03-17T05:31:33;100444.53;;;13.22;66.26
84352;BME280;75904;43.524;1.518;2024-03-17T05:33:58;100447.72;;;13.25;65.94
84352;BME280;75904;43.524;1.518;2024-03-17T05:36:24;100445.38;;;13.22;65.73
84352;BME280;75904;43.524;1.518;2024-03-17T05:38:49;100455.31;;;13.13;65.97
84352;BME280;75904;43.524;1.518;2024-03-17T05:41:14;100462.84;;;13.10;66.39
84352;BME280;75904;43.524;1.518;2024-03-17T05:43:40;100465.22;;;13.05;65.68
84352;BME280;75904;43.524;1.518;2024-03-17T05:46:10;100462.34;;;12.98;66.35
84352;BME280;75904;43.524;1.518;2024-03-17T05:48:36;100454.72;;;12.94;66.12
84352;BME280;75904;43.524;1.518;2024-03-17T05:51:06;100460.44;;;12.91;66.12
84352;BME280;75904;43.524;1.518;2024-03-17T05:53:31;100467.34;;;12.85;67.11
84352;BME280;75904;43.524;1.518;2024-03-17T05:56:00;100478.16;;;12.85;67.31
84352;BME280;75904;43.524;1.518;2024-03-17T05:58:26;100476.97;;;12.88;66.91
84352;BME280;75904;43.524;1.518;2024-03-17T06:00:51;100488.13;;;12.93;66.84
84352;BME280;75904;43.524;1.518;2024-03-17T06:03:17;100483.75;;;12.92;67.21
84352;BME280;75904;43.524;1.518;2024-03-17T06:05:43;100485.63;;;12.99;66.55
84352;BME280;75904;43.524;1.518;2024-03-17T06:08:10;100482.72;;;13.01;67.05
84352;BME280;75904;43.524;1.518;2024-03-17T06:10:37;100475.66;;;13.00;67.13
84352;BME280;75904;43.524;1.518;2024-03-17T06:13:03;100469.59;;;13.06;66.40
84352;BME280;75904;43.524;1.518;2024-03-17T06:15:29;100471.81;;;13.10;66.56
84352;BME280;75904;43.524;1.518;2024-03-17T06:17:54;100479.75;;;13.12;66.36
84352;BME280;75904;43.524;1.518;2024-03-17T06:20:20;100487.75;;;13.22;67.24
84352;BME280;75904;43.524;1.518;2024-03-17T06:22:46;100483.00;;;13.32;66.76
84352;BME280;75904;43.524;1.518;2024-03-17T06:25:13;100479.50;;;13.47;65.57
84352;BME280;75904;43.524;1.518;2024-03-17T06:27:38;100471.41;;;13.64;65.88
84352;BME280;75904;43.524;1.518;2024-03-17T06:30:04;100473.44;;;13.70;66.10
84352;BME280;75904;43.524;1.518;2024-03-17T06:32:30;100478.84;;;13.86;65.13
84352;BME280;75904;43.524;1.518;2024-03-17T06:35:01;100471.25;;;13.89;65.83
84352;BME280;75904;43.524;1.518;2024-03-17T06:37:26;100462.44;;;14.04;64.95
84352;BME280;75904;43.524;1.518;2024-03-17T06:39:51;100464.09;;;14.21;65.17
84352;BME280;75904;43.524;1.518;2024-03-17T06:42:17;100471.34;;;14.28;64.56
84352;BME280;75904;43.524;1.518;2024-03-17T06:44:42;100468.31;;;14.31;64.98
84352;BME280;75904;43.524;1.518;2024-03-17T06:47:07;100462.38;;;14.44;64.02
84352;BME280;75904;43.524;1.518;2024-03-17T06:49:33;100466.75;;;14.53;64.54
84352;BME280;75904;43.524;1.518;2024-03-17T06:51:58;100454.91;;;14.54;65.63
84352;BME280;75904;43.524;1.518;2024-03-17T06:54:24;100452.00;;;14.64;64.08
84352;BME280;75904;43.524;1.518;2024-03-17T06:56:49;100453.00;;;14.71;64.99
84352;BME280;75904;43.524;1.518;2024-03-17T06:59:17;100448.91;;;14.75;64.72
84352;BME280;75904;43.524;1.518;2024-03-17T07:01:42;100455.31;;;14.74;63.77
84352;BME280;75904;43.524;1.518;2024-03-17T07:04:07;100456.72;;;14.70;63.87
84352;BME280;75904;43.524;1.518;2024-03-17T07:06:33;100458.75;;;14.68;64.43
84352;BME280;75904;43.524;1.518;2024-03-17T07:08:58;100448.44;;;14.71;64.38
84352;BME280;75904;43.524;1.518;2024-03-17T07:11:23;100454.81;;;14.79;64.64
84352;BME280;75904;43.524;1.518;2024-03-17T07:13:50;100459.22;;;14.80;63.52
84352;BME280;75904;43.524;1.518;2024-03-17T07:16:18;100464.22;;;14.91;63.67
84352;BME280;75904;43.524;1.518;2024-03-17T07:18:43;100470.94;;;15.03;63.83
84352;BME280;75904;43.524;1.518;2024-03-17T07:21:10;100472.97;;;15.32;63.06
84352;BME280;75904;43.524;1.518;2024-03-17T07:23:35;100466.09;;;16.42;60.08
84352;BME280;75904;43.524;1.518;2024-03-17T07:26:02;100472.88;;;17.26;57.09
84352;BME280;75904;43.524;1.518;2024-03-17T07:28:28;100467.13;;;18.55;54.73
84352;BME280;75904;43.524;1.518;2024-03-17T07:30:55;100472.22;;;19.86;50.12
84352;BME280;75904;43.524;1.518;2024-03-17T07:33:21;100470.03;;;20.87;48.95
84352;BME280;75904;43.524;1.518;2024-03-17T07:35:57;100465.66;;;22.43;45.53
84352;BME280;75904;43.524;1.518;2024-03-17T07:38:25;100446.19;;;22.69;44.78
84352;BME280;75904;43.524;1.518;2024-03-17T07:41:04;100456.13;;;23.37;42.44
84352;BME280;75904;43.524;1.518;2024-03-17T07:43:31;100445.06;;;23.85;40.44
84352;BME280;75904;43.524;1.518;2024-03-17T07:46:15;100444.00;;;23.44;39.18
84352;BME280;75904;43.524;1.518;2024-03-17T07:48:42;100445.22;;;24.02;38.66
84352;BME280;75904;43.524;1.518;2024-03-17T07:51:08;100450.47;;;24.03;39.83
84352;BME280;75904;43.524;1.518;2024-03-17T07:53:35;100453.94;;;24.92;38.97
84352;BME280;75904;43.524;1.518;2024-03-17T07:58:31;100469.66;;;25.48;36.79
84352;BME280;75904;43.524;1.518;2024-03-17T08:01:00;100470.47;;;25.60;36.09
84352;BME280;75904;43.524;1.518;2024-03-17T08:03:27;100473.41;;;25.87;35.57
84352;BME280;75904;43.524;1.518;2024-03-17T08:05:52;100468.34;;;26.12;35.42
84352;BME280;75904;43.524;1.518;2024-03-17T08:08:18;100458.44;;;26.45;33.85
84352;BME280;75904;43.524;1.518;2024-03-17T08:10:44;100464.34;;;26.92;34.31
84352;BME280;75904;43.524;1.518;2024-03-17T08:13:09;100467.59;;;26.89;33.17
84352;BME280;75904;43.524;1.518;2024-03-17T08:15:35;100467.56;;;27.27;32.59
84352;BME280;75904;43.524;1.518;2024-03-17T08:18:01;100467.38;;;27.12;32.31
84352;BME280;75904;43.524;1.518;2024-03-17T08:20:27;100473.31;;;27.74;32.53
84352;BME280;75904;43.524;1.518;2024-03-17T08:22:53;100474.75;;;27.82;32.31
84352;BME280;75904;43.524;1.518;2024-03-17T08:25:18;100475.03;;;27.54;31.78
84352;BME280;75904;43.524;1.518;2024-03-17T08:27:43;100475.81;;;27.76;30.26
84352;BME280;75904;43.524;1.518;2024-03-17T08:30:09;100480.25;;;28.04;30.89
84352;BME280;75904;43.524;1.518;2024-03-17T08:32:38;100483.84;;;27.78;31.33
84352;BME280;75904;43.524;1.518;2024-03-17T08:35:04;100480.38;;;26.95;31.21
84352;BME280;75904;43.524;1.518;2024-03-17T08:37:31;100476.34;;;27.24;31.59
84352;BME280;75904;43.524;1.518;2024-03-17T08:39:56;100470.28;;;27.49;30.63
84352;BME280;75904;43.524;1.518;2024-03-17T08:42:22;100476.94;;;27.05;31.51
84352;BME280;75904;43.524;1.518;2024-03-17T08:44:47;100488.63;;;26.56;31.59
84352;BME280;75904;43.524;1.518;2024-03-17T08:47:12;100490.09;;;26.98;31.54
84352;BME280;75904;43.524;1.518;2024-03-17T08:49:38;100483.25;;;26.83;31.55
84352;BME280;75904;43.524;1.518;2024-03-17T08:52:03;100481.03;;;27.02;31.38
84352;BME280;75904;43.524;1.518;2024-03-17T08:54:29;100485.66;;;27.18;31.04
84352;BME280;75904;43.524;1.518;2024-03-17T08:56:54;100470.50;;;26.99;30.28
84352;BME280;75904;43.524;1.518;2024-03-17T08:59:19;100473.44;;;27.36;31.55
84352;BME280;75904;43.524;1.518;2024-03-17T09:01:45;100473.16;;;27.86;31.46
84352;BME280;75904;43.524;1.518;2024-03-17T09:04:11;100477.63;;;26.95;31.38
84352;BME280;75904;43.524;1.518;2024-03-17T09:06:37;100472.91;;;26.74;31.02
84352;BME280;75904;43.524;1.518;2024-03-17T09:09:02;100473.41;;;26.71;30.74
84352;BME280;75904;43.524;1.518;2024-03-17T09:11:28;100473.28;;;27.21;31.42
84352;BME280;75904;43.524;1.518;2024-03-17T09:13:54;100471.91;;;27.23;30.70
84352;BME280;75904;43.524;1.518;2024-03-17T09:16:19;100478.00;;;27.25;30.87
84352;BME280;75904;43.524;1.518;2024-03-17T09:18:48;100473.19;;;27.91;30.67
84352;BME280;75904;43.524;1.518;2024-03-17T09:21:14;100481.19;;;28.20;29.63
84352;BME280;75904;43.524;1.518;2024-03-17T09:23:41;100472.44;;;28.70;29.80
84352;BME280;75904;43.524;1.518;2024-03-17T09:26:08;100474.25;;;28.49;29.68
84352;BME280;75904;43.524;1.518;2024-03-17T09:28:34;100475.28;;;28.38;29.73
84352;BME280;75904;43.524;1.518;2024-03-17T09:31:01;100469.38;;;28.24;29.18
84352;BME280;75904;43.524;1.518;2024-03-17T09:33:28;100463.94;;;28.81;29.69
84352;BME280;75904;43.524;1.518;2024-03-17T09:36:02;100457.91;;;28.95;28.62
84352;BME280;75904;43.524;1.518;2024-03-17T09:38:28;100453.91;;;28.28;29.18
84352;BME280;75904;43.524;1.518;2024-03-17T09:40:54;100450.59;;;28.73;29.39
84352;BME280;75904;43.524;1.518;2024-03-17T09:43:22;100455.47;;;29.96;28.78
84352;BME280;75904;43.524;1.518;2024-03-17T09:45:49;100460.69;;;29.82;27.69
84352;BME280;75904;43.524;1.518;2024-03-17T09:48:16;100443.81;;;30.29;27.53
84352;BME280;75904;43.524;1.518;2024-03-17T09:50:50;100452.97;;;30.05;27.44
84352;BME280;75904;43.524;1.518;2024-03-17T09:53:17;100444.38;;;30.01;27.67
84352;BME280;75904;43.524;1.518;2024-03-17T09:55:43;100449.84;;;29.71;28.15
84352;BME280;75904;43.524;1.518;2024-03-17T09:58:15;100456.56;;;30.51;27.87
84352;BME280;75904;43.524;1.518;2024-03-17T10:00:42;100461.66;;;31.08;26.38
84352;BME280;75904;43.524;1.518;2024-03-17T10:03:07;100461.97;;;30.96;27.34
84352;BME280;75904;43.524;1.518;2024-03-17T10:05:33;100463.50;;;31.33;26.10
84352;BME280;75904;43.524;1.518;2024-03-17T10:07:59;100459.44;;;31.00;26.33
84352;BME280;75904;43.524;1.518;2024-03-17T10:10:24;100456.13;;;30.98;26.63
84352;BME280;75904;43.524;1.518;2024-03-17T10:12:50;100467.28;;;30.83;27.09
84352;BME280;75904;43.524;1.518;2024-03-17T10:15:17;100459.81;;;30.68;27.44
84352;BME280;75904;43.524;1.518;2024-03-17T10:17:43;100460.88;;;30.97;27.40
84352;BME280;75904;43.524;1.518;2024-03-17T10:20:19;100469.50;;;31.55;27.01
84352;BME280;75904;43.524;1.518;2024-03-17T10:23:03;100468.69;;;32.27;26.28
84352;BME280;75904;43.524;1.518;2024-03-17T10:25:30;100460.31;;;32.61;24.88
84352;BME280;75904;43.524;1.518;2024-03-17T10:27:57;100468.56;;;32.72;26.53
84352;BME280;75904;43.524;1.518;2024-03-17T10:30:23;100466.38;;;32.69;26.04
84352;BME280;75904;43.524;1.518;2024-03-17T10:32:56;100469.66;;;31.74;25.30
84352;BME280;75904;43.524;1.518;2024-03-17T10:35:31;100468.31;;;31.71;25.58
84352;BME280;75904;43.524;1.518;2024-03-17T10:37:58;100471.38;;;31.10;26.16
84352;BME280;75904;43.524;1.518;2024-03-17T10:40:25;100466.16;;;30.84;27.34
84352;BME280;75904;43.524;1.518;2024-03-17T10:42:51;100464.44;;;31.03;27.40
84352;BME280;75904;43.524;1.518;2024-03-17T10:45:17;100453.75;;;30.46;27.59
84352;BME280;75904;43.524;1.518;2024-03-17T10:47:49;100460.41;;;29.69;28.16
84352;BME280;75904;43.524;1.518;2024-03-17T10:50:20;100461.28;;;29.02;29.12
84352;BME280;75904;43.524;1.518;2024-03-17T10:52:50;100464.53;;;28.09;30.38
84352;BME280;75904;43.524;1.518;2024-03-17T10:55:26;100482.81;;;27.35;31.90
84352;BME280;75904;43.524;1.518;2024-03-17T10:57:54;100487.13;;;27.04;32.04
84352;BME280;75904;43.524;1.518;2024-03-17T11:00:23;100496.06;;;26.73;32.71
84352;BME280;75904;43.524;1.518;2024-03-17T11:02:51;100490.56;;;26.39;33.44
84352;BME280;75904;43.524;1.518;2024-03-17T11:05:22;100497.63;;;26.02;34.59
84352;BME280;75904;43.524;1.518;2024-03-17T11:07:50;100498.31;;;25.92;35.43
84352;BME280;75904;43.524;1.518;2024-03-17T11:10:21;100492.31;;;25.78;35.58
84352;BME280;75904;43.524;1.518;2024-03-17T11:12:51;100489.94;;;25.70;35.55
84352;BME280;75904;43.524;1.518;2024-03-17T11:20:29;100481.56;;;25.37;37.02
84352;BME280;75904;43.524;1.518;2024-03-17T11:22:56;100488.06;;;25.19;37.32
84352;BME280;75904;43.524;1.518;2024-03-17T11:27:51;100487.75;;;25.04;37.35
84352;BME280;75904;43.524;1.518;2024-03-17T11:49:27;100438.78;;;24.54;38.12
84352;BME280;75904;43.524;1.518;2024-03-17T11:51:57;100445.72;;;24.57;38.10
84352;BME280;75904;43.524;1.518;2024-03-17T11:54:24;100452.41;;;24.73;37.88
84352;BME280;75904;43.524;1.518;2024-03-17T11:56:53;100457.16;;;24.77;38.23
84352;BME280;75904;43.524;1.518;2024-03-17T11:59:20;100454.38;;;24.89;38.02
84352;BME280;75904;43.524;1.518;2024-03-17T12:01:46;100442.50;;;25.12;38.36
84352;BME280;75904;43.524;1.518;2024-03-17T12:04:16;100437.00;;;25.12;38.19
84352;BME280;75904;43.524;1.518;2024-03-17T12:09:31;100413.63;;;24.97;37.59
84352;BME280;75904;43.524;1.518;2024-03-17T12:12:02;100409.69;;;24.93;38.81
84352;BME280;75904;43.524;1.518;2024-03-17T12:14:28;100399.34;;;24.72;37.81
84352;BME280;75904;43.524;1.518;2024-03-17T12:16:56;100393.00;;;24.72;37.54
84352;BME280;75904;43.524;1.518;2024-03-17T12:19:23;100390.25;;;24.72;38.41
84352;BME280;75904;43.524;1.518;2024-03-17T12:21:50;100383.53;;;24.79;37.98
84352;BME280;75904;43.524;1.518;2024-03-17T12:24:21;100381.34;;;24.81;37.94
84352;BME280;75904;43.524;1.518;2024-03-17T12:26:51;100381.34;;;24.93;37.72
84352;BME280;75904;43.524;1.518;2024-03-17T12:31:57;100368.50;;;25.10;37.60
84352;BME280;75904;43.524;1.518;2024-03-17T12:34:25;100373.88;;;25.33;38.07
84352;BME280;75904;43.524;1.518;2024-03-17T12:36:52;100370.47;;;25.43;37.46
84352;BME280;75904;43.524;1.518;2024-03-17T12:39:20;100358.22;;;25.51;37.12
84352;BME280;75904;43.524;1.518;2024-03-17T12:42:13;100363.97;;;25.49;37.12
84352;BME280;75904;43.524;1.518;2024-03-17T12:44:59;100361.13;;;25.44;37.30
84352;BME280;75904;43.524;1.518;2024-03-17T12:47:30;100350.06;;;25.56;37.37
84352;BME280;75904;43.524;1.518;2024-03-17T12:49:57;100341.31;;;25.59;36.90
84352;BME280;75904;43.524;1.518;2024-03-17T12:55:05;100339.03;;;25.72;36.67
84352;BME280;75904;43.524;1.518;2024-03-17T12:57:52;100323.47;;;25.78;36.69
84352;BME280;75904;43.524;1.518;2024-03-17T13:01:01;100329.22;;;25.76;36.57
84352;BME280;75904;43.524;1.518;2024-03-17T13:03:31;100325.28;;;25.89;36.48
84352;BME280;75904;43.524;1.518;2024-03-17T13:05:59;100326.53;;;25.81;36.33
84352;BME280;75904;43.524;1.518;2024-03-17T13:08:25;100319.53;;;25.74;36.29
84352;BME280;75904;43.524;1.518;2024-03-17T13:10:50;100314.69;;;25.64;36.39
84352;BME280;75904;43.524;1.518;2024-03-17T13:13:16;100315.22;;;25.61;36.22
84352;BME280;75904;43.524;1.518;2024-03-17T13:15:43;100304.69;;;25.58;36.59
84352;BME280;75904;43.524;1.518;2024-03-17T13:18:08;100306.31;;;25.42;36.91
84352;BME280;75904;43.524;1.518;2024-03-17T13:20:34;100293.31;;;25.38;36.43
84352;BME280;75904;43.524;1.518;2024-03-17T13:23:00;100289.97;;;25.36;36.49
84352;BME280;75904;43.524;1.518;2024-03-17T13:25:28;100292.88;;;25.29;35.77
84352;BME280;75904;43.524;1.518;2024-03-17T13:28:02;100290.31;;;25.23;36.26